Time;durP1;ratioP1;P1;durP2;ratioP2;P2;SDS_P1;SDS_P2;PMS_P1;PMS_P2;Temp;Humidity;BMP_temperature;BMP_pressure;BME280_temperature;BME280_humidity;BME280_pressure;Samples;Min_cycle;Max_cycle;Signal;HPM_P1;HPM_P2
2021/01/13 17:47:59;;;;;;;6.47;0.68;;;;;;;;;;5151823;27;20760;-71
2021/01/13 17:50:45;;;;;;;1.73;0.50;;;;;;;;;;5141992;27;20557;-69
2021/01/13 17:53:30;;;;;;;2.88;0.90;;;;;;;;;;5142498;27;20035;-69
2021/01/13 17:56:15;;;;;;;2.67;0.55;;;;;;;;;;5149880;27;20161;-70
2021/01/13 17:59:00;;;;;;;3.13;0.82;;;;;;;;;;5143909;27;20051;-68
2021/01/13 18:01:46;;;;;;;2.40;0.57;;;;;;;;;;5167462;27;20054;-66
2021/01/13 18:04:32;;;;;;;2.58;1.08;;;;;;;;;;5148404;27;20070;-68
2021/01/13 18:07:17;;;;;;;4.15;1.77;;;;;;;;;;5165600;27;20058;-72
2021/01/13 18:10:07;;;;;;;97.03;88.28;;;;;;;;;;5127299;28;20036;-68
2021/01/13 18:12:52;;;;;;;22.77;20.55;;;;;;;;;;5126683;27;20796;-69
2021/01/13 18:15:37;;;;;;;8.07;7.00;;;;;;;;;;5140510;27;20046;-69
2021/01/13 18:18:23;;;;;;;7.90;5.95;;;;;;;;;;5127636;27;20050;-74
2021/01/13 18:21:08;;;;;;;26.73;24.25;;;;;;;;;;5141618;27;20122;-69
2021/01/13 18:23:53;;;;;;;1696.00;890.45;;;;;;;;;;5127700;27;20674;-68
2021/01/13 18:26:38;;;;;;;522.47;323.70;;;;;;;;;;5127178;27;20059;-68
2021/01/13 18:29:23;;;;;;;234.05;134.75;;;;;;;;;;5127302;27;20046;-71
2021/01/13 18:32:09;;;;;;;187.02;114.60;;;;;;;;;;5130236;27;20051;-71
2021/01/13 18:34:54;;;;;;;176.88;104.88;;;;;;;;;;5135114;27;20784;-70
2021/01/13 18:37:43;;;;;;;160.35;97.00;;;;;;;;;;5133211;27;20050;-70
2021/01/13 18:40:29;;;;;;;145.80;89.82;;;;;;;;;;5146542;27;20123;-70
2021/01/13 18:43:23;;;;;;;139.68;86.57;;;;;;;;;;5134885;27;20508;-69
2021/01/13 18:46:08;;;;;;;134.48;78.75;;;;;;;;;;5133876;27;20042;-70
2021/01/13 18:48:53;;;;;;;145.15;85.18;;;;;;;;;;5142844;27;20046;-70
2021/01/13 18:51:40;;;;;;;127.55;77.50;;;;;;;;;;5133484;27;20047;-70
2021/01/13 18:54:25;;;;;;;118.00;72.40;;;;;;;;;;5137939;27;20035;-70
2021/01/13 18:57:11;;;;;;;113.88;68.72;;;;;;;;;;5133867;27;20047;-70
2021/01/13 18:59:56;;;;;;;103.78;65.28;;;;;;;;;;5123196;27;20051;-71
2021/01/13 19:02:41;;;;;;;109.45;64.60;;;;;;;;;;5122903;27;20090;-71
2021/01/13 19:05:26;;;;;;;98.55;59.90;;;;;;;;;;5122817;27;20039;-71
2021/01/13 19:08:12;;;;;;;94.95;55.88;;;;;;;;;;5124241;27;20059;-72
2021/01/13 19:10:58;;;;;;;89.10;54.63;;;;;;;;;;5119422;27;20650;-72
2021/01/13 19:13:43;;;;;;;96.65;57.47;;;;;;;;;;5125862;27;20031;-71
2021/01/13 19:16:29;;;;;;;88.53;50.97;;;;;;;;;;5133923;27;20074;-72
2021/01/13 19:19:14;;;;;;;81.18;49.38;;;;;;;;;;5117069;27;20031;-71
2021/01/13 19:22:03;;;;;;;77.40;46.70;;;;;;;;;;5124553;27;20055;-72
2021/01/13 19:24:49;;;;;;;81.82;48.78;;;;;;;;;;5121365;27;20469;-72
2021/01/13 19:27:35;;;;;;;70.65;44.90;;;;;;;;;;5132054;27;20055;-73
2021/01/13 19:30:20;;;;;;;81.90;46.20;;;;;;;;;;5115866;27;20404;-72
2021/01/13 19:33:06;;;;;;;68.07;43.17;;;;;;;;;;5097431;22;20060;-67
2021/01/13 19:35:51;;;;;;;71.32;43.75;;;;;;;;;;5051709;28;20041;-67
2021/01/13 19:38:37;;;;;;;70.53;40.83;;;;;;;;;;5051855;28;20037;-66
2021/01/13 19:41:22;;;;;;;70.53;43.30;;;;;;;;;;5053835;28;20060;-67
2021/01/13 19:44:08;;;;;;;62.47;39.08;;;;;;;;;;5071480;28;20076;-66
2021/01/13 19:46:54;;;;;;;64.30;38.60;;;;;;;;;;5070377;28;20060;-68
2021/01/13 19:49:40;;;;;;;54.28;32.28;;;;;;;;;;5068638;28;20040;-65
2021/01/13 19:52:26;;;;;;;45.70;27.55;;;;;;;;;;5072077;28;20056;-65
2021/01/13 19:55:11;;;;;;;40.42;25.58;;;;;;;;;;5072466;28;20048;-67
2021/01/13 19:57:57;;;;;;;46.65;27.55;;;;;;;;;;5071364;28;20052;-65
2021/01/13 20:00:42;;;;;;;39.42;22.90;;;;;;;;;;5081460;28;20071;-65
2021/01/13 20:03:28;;;;;;;40.58;23.70;;;;;;;;;;5090863;28;20055;-64
2021/01/13 20:06:13;;;;;;;44.95;24.02;;;;;;;;;;5071702;28;20044;-64
2021/01/13 20:08:57;;;;;;;39.20;22.40;;;;;;;;;;5071160;28;20037;-64
2021/01/13 20:11:43;;;;;;;34.58;22.02;;;;;;;;;;5074851;28;20052;-64
2021/01/13 20:14:28;;;;;;;35.50;20.33;;;;;;;;;;5071738;28;20114;-65
2021/01/13 20:17:14;;;;;;;31.80;19.25;;;;;;;;;;5071456;28;20045;-64
2021/01/13 20:19:59;;;;;;;31.17;19.85;;;;;;;;;;5071734;28;20406;-64
2021/01/13 20:22:49;;;;;;;36.22;20.17;;;;;;;;;;5070548;28;20068;-64
2021/01/13 20:25:34;;;;;;;33.88;19.77;;;;;;;;;;5071226;28;20037;-64
2021/01/13 20:28:19;;;;;;;31.63;19.95;;;;;;;;;;5071310;28;20679;-64
2021/01/13 20:31:04;;;;;;;33.67;18.88;;;;;;;;;;5075371;28;20085;-64
2021/01/13 20:33:49;;;;;;;27.70;17.70;;;;;;;;;;5086391;28;20048;-63
2021/01/13 20:36:34;;;;;;;28.42;17.95;;;;;;;;;;5070164;28;20114;-64
2021/01/13 20:39:20;;;;;;;30.73;17.73;;;;;;;;;;5091504;28;20501;-64
2021/01/13 20:42:06;;;;;;;29.77;18.83;;;;;;;;;;5081067;28;20056;-64
2021/01/13 20:44:52;;;;;;;30.23;18.00;;;;;;;;;;5069787;28;20078;-64
2021/01/13 20:47:37;;;;;;;30.00;17.70;;;;;;;;;;5070030;28;20049;-64
2021/01/13 20:50:22;;;;;;;28.65;16.67;;;;;;;;;;5066520;28;20086;-64
2021/01/13 20:53:08;;;;;;;31.73;16.48;;;;;;;;;;5086450;28;20117;-63
2021/01/13 20:55:56;;;;;;;33.63;19.10;;;;;;;;;;5090832;28;20048;-64
2021/01/13 20:58:41;;;;;;;24.45;15.73;;;;;;;;;;5090946;28;20075;-64
2021/01/13 21:01:27;;;;;;;25.02;14.98;;;;;;;;;;5091174;28;20048;-64
2021/01/13 21:04:12;;;;;;;25.77;16.45;;;;;;;;;;5078445;28;20040;-64
2021/01/13 21:06:57;;;;;;;27.48;16.55;;;;;;;;;;5090427;28;20044;-64
2021/01/13 21:09:43;;;;;;;24.77;14.57;;;;;;;;;;5090593;28;20126;-64
2021/01/13 21:12:28;;;;;;;24.30;13.93;;;;;;;;;;5079477;28;20700;-64
2021/01/13 21:15:13;;;;;;;25.85;15.90;;;;;;;;;;5091237;28;20040;-64
2021/01/13 21:17:58;;;;;;;22.92;13.45;;;;;;;;;;5090461;28;20133;-64
2021/01/13 21:20:43;;;;;;;22.95;14.55;;;;;;;;;;5090059;28;20048;-64
2021/01/13 21:23:29;;;;;;;18.73;12.18;;;;;;;;;;5080987;28;20044;-64
2021/01/13 21:26:17;;;;;;;24.40;14.15;;;;;;;;;;5070645;28;20056;-64
2021/01/13 21:29:03;;;;;;;25.00;14.50;;;;;;;;;;5070576;28;20490;-64
2021/01/13 21:31:49;;;;;;;23.73;14.50;;;;;;;;;;5069766;28;20496;-64
2021/01/13 21:34:34;;;;;;;19.70;12.15;;;;;;;;;;5075281;28;20056;-64
2021/01/13 21:37:19;;;;;;;20.85;13.15;;;;;;;;;;5070295;28;20132;-64
2021/01/13 21:40:05;;;;;;;23.25;13.73;;;;;;;;;;5070802;28;20044;-64
2021/01/13 21:42:51;;;;;;;18.55;12.90;;;;;;;;;;5069637;28;20044;-64
2021/01/13 21:45:36;;;;;;;20.33;11.95;;;;;;;;;;5069815;28;20049;-63
2021/01/13 21:48:22;;;;;;;19.45;11.75;;;;;;;;;;5070086;28;20049;-64
2021/01/13 21:51:07;;;;;;;19.73;11.55;;;;;;;;;;5065552;28;20465;-63
2021/01/13 21:53:53;;;;;;;18.48;11.18;;;;;;;;;;5073908;28;20055;-63
2021/01/13 21:56:38;;;;;;;19.40;12.27;;;;;;;;;;5089362;28;20052;-63
2021/01/13 21:59:24;;;;;;;19.90;11.88;;;;;;;;;;5090558;28;20559;-63
2021/01/13 22:02:09;;;;;;;19.65;11.15;;;;;;;;;;5072772;28;20633;-63
2021/01/13 22:04:54;;;;;;;18.63;9.70;;;;;;;;;;5083177;28;20928;-63
2021/01/13 22:07:39;;;;;;;17.63;10.05;;;;;;;;;;5088862;28;20052;-64
2021/01/13 22:10:28;;;;;;;17.42;10.30;;;;;;;;;;5070317;28;20124;-63
2021/01/13 22:13:14;;;;;;;16.92;9.63;;;;;;;;;;5084178;28;20056;-63
2021/01/13 22:15:59;;;;;;;18.00;9.95;;;;;;;;;;5089888;28;20043;-66
2021/01/13 22:18:44;;;;;;;20.02;10.30;;;;;;;;;;5081837;28;20135;-63
2021/01/13 22:21:29;;;;;;;17.45;10.02;;;;;;;;;;5069885;28;20143;-64
2021/01/13 22:24:15;;;;;;;15.70;9.68;;;;;;;;;;5070174;28;20040;-64
2021/01/13 22:27:01;;;;;;;13.70;8.95;;;;;;;;;;5070156;28;20048;-64
